Saltford, United Kingdom
Current Conditions -  °F | °C
As of 4:20 PM on Tuesday 21 Oct 2014 (Local Time) from EGGD Reporting Station
Rain Showers Rain Showers  
Wind Chill: 41°   Ceiling: Unl
Heat Index: 48°   Visibility: 6mi
Dew Point: 41°   Wind: 22mph
Humidity: 76%   Direction: 280°W
Pressure: 29.94"   Gusts: NA
Location:  51.4°N, 2.46°W
Report Text: EGGD 211520Z 28019KT 9999 VCSH FEW016 09/05 Q1014 RESHRA
Loading
Personal Weather Stations






























Interactive Weather Map
Tropical Storm Tracking
New forecast layout! Learn more

10-Day Weather Forecast

Advertisements
Track Severe Weather on mobile